메인 페이지
METAR-TAF:

METAR-TAF

공항 :

에센보아 국제공항

앙카라 Esenboğa, 터키

위도: 40-07N, 경도: 032-59E, 고도: 953m

현재 날씨관측

예보는 35분 전, 18:50시(UTC)에 발표되었습니다.
북동3kt
온도 16°C
습도 39%
기압 1018 hPa
시정 10km 이상
1500m 미만 상공 구름 및 적란운 없음

METAR: LTAC 201850Z 04003KT CAVOK 16/02 Q1018 NOSIG RMK RWY21L 02006KT RWY03L VRB02KT RWY21R 03005KT 360V060

시각: 22:25 (19:25 UTC)

예보

예보는 2 시간 45분 전, 16:40시(UTC)에 발표되었습니다.
예보 대상 시간: 20일 18시부터 21일 18시까지 (UTC)
북북동7kt
시정 10km 이상
1500m 미만 상공 구름 및 적란운 없음
전환 중
21일 06시부터 21일 09시까지 (UTC)
고도 4000ft 상공 구름 조금
전환 중
21일 12시부터 21일 15시까지 (UTC)
시정 10km 이상
1500m 미만 상공 구름 및 적란운 없음

TAF: LTAC 201640Z 2018/2118 03007KT CAVOK BECMG 2106/2109 FEW040 BECMG 2112/2115 CAVOK

4,000개 이상의 공항 관측 자료 및 예보 (METAR 및 TAF 보고).

지도상에서 검색 가능한 기상관측소가 노란 점과 빨간 점으로 표시되어 있습니다.

기상관측소 명을 보려면 표시 위로 마우스를 이동하세요.

날씨 관측과 예보를 보려면 클릭하세요.

지도 변경 : 확대하려면 엑스 표시가 있는 녹색 버튼, 축소하려면 빼기 표시가 있는 녹색 버튼, 다음 페이지의 지도를 보려면 녹색 화살표를 클릭하세요.


METAR-TAF: